Time;durP1;ratioP1;P1;durP2;ratioP2;P2;SDS_P1;SDS_P2;PMS_P1;PMS_P2;Temp;Humidity;BMP_temperature;BMP_pressure;BME280_temperature;BME280_humidity;BME280_pressure;Samples;Min_cycle;Max_cycle;Signal;HPM_P1;HPM_P2
2022/05/13 00:00:08;;;;;;;2.50;2.35;;;21.30;67.30;;;;;;5031805;28;20207;-70
2022/05/13 00:02:34;;;;;;;3.10;2.90;;;21.30;67.30;;;;;;5032574;28;20186;-70
2022/05/13 00:05:03;;;;;;;2.83;2.63;;;21.30;67.30;;;;;;5049308;28;20595;-70
2022/05/13 00:07:29;;;;;;;3.20;2.85;;;21.30;67.30;;;;;;5034102;28;20186;-70
2022/05/13 00:09:57;;;;;;;2.80;2.60;;;21.30;67.40;;;;;;5038250;28;20210;-70
2022/05/13 00:12:25;;;;;;;2.78;2.58;;;21.30;67.40;;;;;;5052219;28;20189;-70
2022/05/13 00:14:52;;;;;;;3.00;2.80;;;21.30;67.40;;;;;;5053464;28;20185;-70
2022/05/13 00:17:20;;;;;;;3.53;2.75;;;21.30;67.40;;;;;;5052512;28;20186;-70
2022/05/13 00:19:46;;;;;;;3.20;2.90;;;21.30;67.40;;;;;;5052395;28;20195;-70
2022/05/13 00:22:12;;;;;;;3.47;2.92;;;21.30;67.40;;;;;;5036400;28;20566;-70
2022/05/13 00:24:39;;;;;;;2.95;2.75;;;21.30;67.40;;;;;;5052168;28;20693;-70
2022/05/13 00:27:06;;;;;;;3.00;2.80;;;21.30;67.40;;;;;;5052415;28;20198;-70
2022/05/13 00:29:33;;;;;;;2.95;2.70;;;21.30;67.40;;;;;;5052803;28;20213;-70
2022/05/13 00:32:00;;;;;;;3.10;2.90;;;21.30;67.50;;;;;;5036715;28;20186;-70
2022/05/13 00:34:26;;;;;;;3.05;2.70;;;21.30;67.40;;;;;;5056078;28;20206;-70
2022/05/13 00:36:52;;;;;;;2.90;2.60;;;21.30;67.40;;;;;;5055763;28;20193;-70
2022/05/13 00:39:19;;;;;;;2.90;2.70;;;21.30;67.40;;;;;;5055879;28;20211;-70
2022/05/13 00:41:46;;;;;;;2.67;2.47;;;21.30;67.50;;;;;;5072768;28;20210;-71
2022/05/13 00:44:13;;;;;;;2.67;2.47;;;21.30;67.40;;;;;;5056338;28;20222;-70
2022/05/13 00:46:39;;;;;;;3.08;2.78;;;21.30;67.40;;;;;;5055824;28;20182;-70
2022/05/13 00:49:09;;;;;;;2.90;2.70;;;21.30;67.30;;;;;;5055637;28;20233;-70
2022/05/13 00:51:45;;;;;;;2.67;2.47;;;21.30;67.40;;;;;;5055830;28;20182;-71
2022/05/13 00:54:13;;;;;;;2.83;2.63;;;21.30;67.30;;;;;;5055855;28;20642;-70
2022/05/13 00:56:47;;;;;;;3.13;2.88;;;21.30;67.40;;;;;;5055471;28;20182;-70
2022/05/13 00:59:22;;;;;;;2.67;2.47;;;21.30;67.40;;;;;;5056760;28;20224;-70
2022/05/13 01:01:48;;;;;;;3.15;2.85;;;21.30;67.50;;;;;;5056194;28;20210;-70
2022/05/13 01:04:18;;;;;;;2.78;2.58;;;21.30;67.50;;;;;;5055979;28;20714;-70
2022/05/13 01:06:52;;;;;;;2.85;2.70;;;21.30;67.50;;;;;;5055267;28;20178;-70
2022/05/13 01:09:20;;;;;;;2.88;2.67;;;21.30;67.40;;;;;;5056428;28;20195;-70
2022/05/13 01:11:52;;;;;;;2.95;2.75;;;21.30;67.50;;;;;;5038668;28;20204;-70
2022/05/13 01:14:33;;;;;;;2.80;2.60;;;21.20;67.40;;;;;;5056143;28;20174;-70
2022/05/13 01:20:22;;;;;;;2.90;2.70;;;21.30;67.40;;;;;;5054928;28;20260;-70
2022/05/13 01:22:53;;;;;;;2.78;2.58;;;21.30;67.40;;;;;;5054971;28;20397;-70
2022/05/13 01:25:26;;;;;;;3.20;3.00;;;21.30;67.40;;;;;;5038204;28;20191;-70
2022/05/13 01:27:55;;;;;;;2.97;2.78;;;21.30;67.40;;;;;;5037972;28;20223;-70
2022/05/13 01:30:27;;;;;;;2.70;2.50;;;21.30;67.40;;;;;;5054457;28;20214;-70
2022/05/13 01:32:53;;;;;;;3.00;2.63;;;21.30;67.50;;;;;;5038176;28;20243;-70
2022/05/13 01:35:20;;;;;;;2.70;2.50;;;21.20;67.30;;;;;;5037445;28;20193;-70
2022/05/13 01:37:47;;;;;;;2.65;2.45;;;21.30;67.40;;;;;;5054142;28;20258;-71
2022/05/13 01:40:14;;;;;;;2.88;2.67;;;21.20;67.30;;;;;;5055418;28;20202;-70
2022/05/13 01:42:40;;;;;;;2.72;2.53;;;21.30;67.40;;;;;;5037503;28;20193;-71
2022/05/13 01:45:10;;;;;;;2.90;2.70;;;21.30;67.40;;;;;;5054464;28;20239;-70
2022/05/13 01:47:37;;;;;;;2.97;2.78;;;21.20;67.30;;;;;;5054681;28;20275;-70
2022/05/13 01:50:05;;;;;;;2.53;2.33;;;21.30;67.40;;;;;;5037749;28;20613;-71
2022/05/13 01:52:32;;;;;;;2.78;2.58;;;21.30;67.40;;;;;;5055845;28;20268;-70
2022/05/13 01:54:58;;;;;;;2.60;2.40;;;21.20;67.30;;;;;;5054043;28;20187;-70
2022/05/13 01:57:24;;;;;;;3.20;3.00;;;21.30;67.50;;;;;;5037555;28;20206;-71
2022/05/13 01:59:49;;;;;;;2.75;2.60;;;21.20;67.30;;;;;;5052340;28;20242;-70
2022/05/13 02:02:15;;;;;;;2.78;2.58;;;21.30;67.50;;;;;;5040446;28;20654;-70
2022/05/13 02:04:41;;;;;;;2.47;2.33;;;21.20;67.30;;;;;;5070572;28;20258;-70
2022/05/13 02:07:07;;;;;;;2.90;2.60;;;21.20;67.30;;;;;;5053931;28;20256;-70
2022/05/13 02:09:32;;;;;;;2.80;2.60;;;21.20;67.30;;;;;;5036021;28;20289;-70
2022/05/13 02:11:59;;;;;;;2.58;2.38;;;21.20;67.30;;;;;;5045504;28;20186;-70
2022/05/13 02:14:24;;;;;;;2.40;2.30;;;21.20;67.40;;;;;;5054415;28;20190;-70
2022/05/13 02:16:50;;;;;;;2.90;2.70;;;21.20;67.40;;;;;;5054012;28;20244;-70
2022/05/13 02:19:17;;;;;;;3.00;2.80;;;21.20;67.40;;;;;;5037075;28;20209;-70
2022/05/13 02:21:43;;;;;;;2.95;2.75;;;21.20;67.40;;;;;;5054320;28;20206;-70
2022/05/13 02:24:09;;;;;;;3.03;2.83;;;21.20;68.10;;;;;;5055915;28;20659;-70
2022/05/13 02:26:35;;;;;;;2.72;2.53;;;21.20;67.40;;;;;;5054106;28;20214;-70
2022/05/13 02:29:02;;;;;;;2.67;2.47;;;21.20;67.40;;;;;;5070991;28;20237;-70
2022/05/13 02:31:30;;;;;;;2.33;2.17;;;21.20;67.30;;;;;;5053606;28;20282;-70
2022/05/13 02:33:58;;;;;;;3.10;2.90;;;21.20;67.30;;;;;;5053877;28;20206;-70
2022/05/13 02:36:25;;;;;;;2.42;2.30;;;21.20;67.40;;;;;;5070308;28;20191;-70
2022/05/13 02:38:51;;;;;;;2.70;2.50;;;21.20;67.30;;;;;;5036796;28;20202;-70
2022/05/13 02:41:17;;;;;;;2.60;2.40;;;21.20;67.40;;;;;;5054311;28;20240;-70
2022/05/13 02:43:46;;;;;;;2.55;2.35;;;21.20;67.40;;;;;;5037436;28;20183;-70
2022/05/13 02:46:20;;;;;;;2.70;2.50;;;21.20;67.40;;;;;;5053482;28;20189;-70
2022/05/13 02:48:46;;;;;;;2.40;2.30;;;21.20;67.40;;;;;;5053527;28;20220;-70
2022/05/13 02:51:13;;;;;;;2.50;2.30;;;21.20;67.40;;;;;;5054130;28;20186;-70
2022/05/13 02:53:39;;;;;;;2.80;2.60;;;21.20;67.40;;;;;;5036926;28;20182;-70
2022/05/13 02:56:07;;;;;;;2.85;2.47;;;21.20;67.40;;;;;;5052794;28;20214;-70
2022/05/13 02:58:34;;;;;;;3.00;2.80;;;21.20;67.40;;;;;;5054878;28;20230;-70
2022/05/13 03:01:02;;;;;;;2.80;2.60;;;21.20;67.40;;;;;;5070243;28;20586;-70
2022/05/13 03:03:29;;;;;;;2.70;2.50;;;21.20;67.50;;;;;;5037141;28;20248;-70
2022/05/13 03:05:56;;;;;;;2.70;2.50;;;21.20;67.50;;;;;;5053891;28;20242;-70
2022/05/13 03:08:22;;;;;;;2.90;2.70;;;21.20;67.50;;;;;;5054224;28;20175;-70
2022/05/13 03:10:48;;;;;;;2.95;2.70;;;21.20;67.50;;;;;;5055625;28;20363;-70
2022/05/13 03:13:19;;;;;;;3.05;2.75;;;21.20;67.40;;;;;;5053234;28;20680;-70
2022/05/13 03:15:46;;;;;;;2.50;2.40;;;21.20;67.50;;;;;;5053027;28;20231;-70
2022/05/13 03:18:12;;;;;;;3.40;3.10;;;21.20;67.40;;;;;;5053282;28;20218;-70
2022/05/13 03:20:38;;;;;;;2.90;2.55;;;21.20;67.50;;;;;;5055617;28;20202;-70
2022/05/13 03:23:04;;;;;;;2.65;2.45;;;21.20;67.40;;;;;;5054419;28;20191;-70
2022/05/13 03:25:30;;;;;;;2.20;2.10;;;21.20;67.40;;;;;;5069850;28;20186;-70
2022/05/13 03:27:56;;;;;;;2.88;2.63;;;21.20;67.40;;;;;;5069501;28;20193;-70
2022/05/13 03:30:25;;;;;;;2.58;2.47;;;21.20;68.10;;;;;;5052124;28;20229;-70
2022/05/13 03:32:55;;;;;;;2.40;2.30;;;21.20;67.50;;;;;;5069118;28;20185;-70
2022/05/13 03:35:23;;;;;;;2.75;2.42;;;21.20;67.40;;;;;;5052384;28;20210;-70
2022/05/13 03:37:48;;;;;;;2.60;2.40;;;21.20;67.50;;;;;;5036234;28;20225;-70
2022/05/13 03:40:16;;;;;;;2.80;2.60;;;21.20;67.50;;;;;;5052253;28;20206;-70
2022/05/13 03:42:43;;;;;;;2.78;2.58;;;21.20;67.50;;;;;;5052179;28;20733;-70
2022/05/13 03:45:12;;;;;;;2.92;2.72;;;21.20;67.50;;;;;;5035327;28;20186;-70
2022/05/13 03:47:38;;;;;;;2.80;2.60;;;21.20;67.50;;;;;;5051987;28;20606;-70
2022/05/13 03:50:05;;;;;;;2.80;2.60;;;21.20;67.50;;;;;;5052290;28;20199;-70
2022/05/13 03:52:32;;;;;;;2.70;2.50;;;21.20;67.50;;;;;;5052312;28;20182;-70
2022/05/13 03:54:58;;;;;;;2.38;2.28;;;21.20;67.50;;;;;;5052006;28;20175;-70
2022/05/13 03:57:24;;;;;;;2.50;2.30;;;21.20;67.60;;;;;;5035171;28;20704;-70
2022/05/13 03:59:49;;;;;;;2.55;2.38;;;21.20;67.50;;;;;;5051712;28;20206;-70
2022/05/13 04:02:15;;;;;;;2.78;2.58;;;21.20;67.60;;;;;;5051699;28;20218;-70
2022/05/13 04:10:10;;;;;;;2.42;2.33;;;21.20;67.50;;;;;;5053932;28;20232;-70
2022/05/13 04:18:05;;;;;;;3.05;2.75;;;21.20;67.60;;;;;;5053069;28;20197;-71
2022/05/13 04:20:32;;;;;;;2.78;2.47;;;21.20;67.50;;;;;;5054333;28;20693;-70
2022/05/13 04:22:58;;;;;;;2.70;2.50;;;21.20;67.60;;;;;;5036905;28;20187;-70
2022/05/13 04:25:24;;;;;;;2.88;2.67;;;21.20;67.70;;;;;;5053348;28;20200;-70
2022/05/13 04:27:50;;;;;;;2.30;2.20;;;21.20;67.70;;;;;;5053618;28;20186;-70
2022/05/13 04:30:17;;;;;;;2.67;2.47;;;21.10;67.60;;;;;;5053032;28;20236;-70
2022/05/13 04:32:43;;;;;;;2.63;2.42;;;21.20;67.70;;;;;;5053405;28;20182;-70
2022/05/13 04:35:09;;;;;;;2.63;2.40;;;21.20;67.60;;;;;;5035664;28;20615;-70
2022/05/13 04:37:37;;;;;;;2.60;2.42;;;21.20;67.60;;;;;;5036206;28;20228;-71
2022/05/13 04:40:03;;;;;;;2.60;2.47;;;21.20;67.60;;;;;;5069819;28;20217;-70
2022/05/13 04:45:13;;;;;;;2.60;2.40;;;21.20;68.40;;;;;;5053179;28;20201;-70
2022/05/13 04:50:23;;;;;;;2.60;2.40;;;21.20;67.60;;;;;;5053221;28;20220;-71
2022/05/13 04:52:49;;;;;;;2.88;2.47;;;21.20;68.30;;;;;;5052656;28;20167;-71
2022/05/13 04:55:14;;;;;;;2.70;2.50;;;21.20;67.70;;;;;;5046153;28;20198;-70
2022/05/13 04:57:40;;;;;;;2.65;2.47;;;21.20;67.60;;;;;;5051106;28;20210;-70
2022/05/13 05:00:07;;;;;;;3.03;2.70;;;21.20;67.60;;;;;;5049331;28;20211;-70
2022/05/13 05:02:34;;;;;;;2.65;2.53;;;21.20;67.70;;;;;;5032275;28;20206;-71
2022/05/13 05:05:00;;;;;;;2.55;2.35;;;21.20;67.80;;;;;;5031442;28;20187;-71
2022/05/13 05:07:26;;;;;;;2.60;2.40;;;21.20;67.80;;;;;;5014596;28;20187;-71
2022/05/13 05:09:52;;;;;;;2.85;2.65;;;21.20;67.80;;;;;;5031038;28;20203;-72
2022/05/13 05:12:17;;;;;;;2.55;2.35;;;21.20;67.80;;;;;;5034038;28;20191;-71
2022/05/13 05:14:44;;;;;;;4.30;2.78;;;21.20;67.80;;;;;;5017221;28;20183;-71
2022/05/13 05:17:10;;;;;;;2.88;2.67;;;21.20;67.90;;;;;;5035101;28;20210;-71
2022/05/13 05:19:36;;;;;;;2.58;2.47;;;21.20;67.80;;;;;;5037081;28;20207;-71
2022/05/13 05:22:05;;;;;;;3.08;2.80;;;21.20;67.80;;;;;;5036204;28;20215;-72
2022/05/13 05:24:31;;;;;;;3.00;2.70;;;21.20;67.90;;;;;;5036387;28;20214;-72
2022/05/13 05:26:57;;;;;;;2.58;2.38;;;21.20;67.70;;;;;;5036485;28;20199;-72
2022/05/13 05:29:23;;;;;;;2.20;2.10;;;21.20;67.90;;;;;;5037468;28;20421;-72
2022/05/13 05:31:49;;;;;;;2.50;2.30;;;21.20;67.90;;;;;;5037934;28;20308;-72
2022/05/13 05:34:17;;;;;;;3.00;2.70;;;21.20;67.90;;;;;;5036527;28;20188;-72
2022/05/13 05:36:44;;;;;;;2.20;2.10;;;21.20;67.80;;;;;;5019898;28;20218;-71
2022/05/13 05:39:10;;;;;;;2.60;2.40;;;21.20;67.80;;;;;;5036537;28;20276;-71
2022/05/13 05:41:36;;;;;;;2.30;2.20;;;21.20;67.80;;;;;;5019575;28;20221;-71
2022/05/13 05:44:03;;;;;;;2.72;2.42;;;21.20;67.90;;;;;;5035633;28;20262;-71
2022/05/13 05:46:29;;;;;;;2.25;2.15;;;21.20;68.00;;;;;;5036312;28;20198;-71
2022/05/13 05:48:55;;;;;;;2.72;2.53;;;21.20;68.00;;;;;;5036050;28;20200;-71
2022/05/13 05:51:21;;;;;;;2.58;2.40;;;21.20;68.00;;;;;;5037307;28;20187;-72
2022/05/13 05:59:15;;;;;;;2.80;2.60;;;21.20;68.00;;;;;;5047153;28;20245;-71
2022/05/13 06:01:41;;;;;;;3.25;2.50;;;21.20;68.00;;;;;;5056258;28;20233;-71
2022/05/13 06:04:07;;;;;;;2.80;2.55;;;21.20;67.80;;;;;;5056548;28;20179;-71
2022/05/13 06:06:33;;;;;;;2.80;2.60;;;21.20;67.90;;;;;;5055521;28;20198;-71
2022/05/13 06:09:00;;;;;;;2.97;2.67;;;21.20;67.90;;;;;;5055055;28;20198;-72
2022/05/13 06:11:26;;;;;;;2.58;2.38;;;21.20;68.00;;;;;;5038731;28;20290;-72
2022/05/13 06:13:53;;;;;;;2.60;2.40;;;21.20;68.00;;;;;;5056457;28;20286;-72
2022/05/13 06:16:22;;;;;;;2.70;2.50;;;21.20;68.00;;;;;;5055018;28;20187;-71
2022/05/13 06:18:49;;;;;;;2.70;2.50;;;21.20;68.00;;;;;;5054816;28;20213;-71
2022/05/13 06:21:14;;;;;;;2.40;2.30;;;21.20;68.10;;;;;;5050159;28;20687;-71
2022/05/13 06:23:40;;;;;;;2.35;2.25;;;21.20;68.10;;;;;;5034694;28;20198;-71
2022/05/13 06:26:06;;;;;;;2.60;2.40;;;21.20;68.10;;;;;;5035339;28;20191;-71
2022/05/13 06:28:33;;;;;;;3.58;3.15;;;21.20;68.20;;;;;;5035609;28;20698;-72
2022/05/13 06:30:58;;;;;;;2.60;2.50;;;21.20;68.20;;;;;;5035116;28;20226;-72
2022/05/13 06:33:25;;;;;;;2.90;2.70;;;21.20;68.20;;;;;;5035485;28;20187;-71
2022/05/13 06:35:51;;;;;;;2.95;2.65;;;21.20;68.20;;;;;;5018874;28;20247;-71
2022/05/13 06:38:21;;;;;;;2.70;2.50;;;21.20;68.20;;;;;;5035742;28;20187;-71
2022/05/13 06:40:48;;;;;;;2.97;2.75;;;21.20;68.20;;;;;;5035460;28;20630;-71
2022/05/13 06:43:14;;;;;;;2.65;2.45;;;21.20;68.20;;;;;;5035481;28;20211;-72
2022/05/13 06:45:41;;;;;;;2.70;2.50;;;21.20;68.20;;;;;;5018696;28;20214;-71
2022/05/13 06:48:08;;;;;;;2.80;2.60;;;21.20;68.10;;;;;;5034752;28;20199;-71
2022/05/13 06:50:33;;;;;;;2.72;2.53;;;21.30;68.30;;;;;;5036472;28;20203;-71
2022/05/13 06:52:59;;;;;;;3.30;3.00;;;21.20;68.20;;;;;;5034531;28;20199;-71
2022/05/13 06:55:25;;;;;;;3.03;2.80;;;21.20;68.20;;;;;;5018063;28;20197;-70
2022/05/13 06:57:51;;;;;;;2.80;2.60;;;21.20;68.20;;;;;;5034809;28;20191;-71
2022/05/13 07:00:18;;;;;;;2.40;2.30;;;21.20;68.20;;;;;;5034616;28;20210;-71
2022/05/13 07:02:44;;;;;;;2.83;2.63;;;21.20;68.20;;;;;;5034687;28;20233;-71
2022/05/13 07:05:13;;;;;;;3.22;2.67;;;21.20;68.20;;;;;;5018492;28;20179;-71
2022/05/13 07:07:39;;;;;;;2.80;2.60;;;21.20;68.20;;;;;;5034043;28;20171;-71
2022/05/13 07:10:06;;;;;;;2.50;2.30;;;21.20;68.20;;;;;;5034206;28;20203;-71
2022/05/13 07:12:32;;;;;;;2.50;2.40;;;21.20;68.20;;;;;;5034467;28;20213;-72
2022/05/13 07:14:59;;;;;;;2.58;2.38;;;21.20;68.20;;;;;;5032577;28;20274;-72
2022/05/13 07:17:25;;;;;;;2.50;2.35;;;21.20;68.20;;;;;;5042833;28;20325;-71
2022/05/13 07:19:51;;;;;;;2.50;2.30;;;21.20;68.20;;;;;;5031796;28;20353;-71
2022/05/13 07:22:17;;;;;;;2.35;2.25;;;21.20;68.20;;;;;;5032077;28;20282;-71
2022/05/13 07:24:43;;;;;;;2.47;2.28;;;21.20;68.20;;;;;;5033487;28;20182;-71
2022/05/13 07:27:09;;;;;;;3.03;2.80;;;21.20;68.20;;;;;;5032251;28;20214;-72
2022/05/13 07:29:34;;;;;;;2.53;2.33;;;21.20;68.20;;;;;;5068795;28;20689;-72
2022/05/13 07:32:00;;;;;;;2.60;2.40;;;21.20;68.20;;;;;;5052160;28;20190;-71
2022/05/13 07:34:26;;;;;;;2.22;2.00;;;21.20;68.20;;;;;;5052205;28;20202;-71
2022/05/13 07:36:54;;;;;;;2.35;2.15;;;21.20;68.30;;;;;;5068300;28;20277;-71
2022/05/13 07:42:10;;;;;;;2.08;1.98;;;21.20;68.20;;;;;;5032593;28;20218;-72
2022/05/13 07:44:36;;;;;;;2.40;2.20;;;21.20;68.10;;;;;;5031733;28;20173;-71
2022/05/13 07:47:05;;;;;;;2.47;2.28;;;21.20;68.20;;;;;;5031539;28;20183;-71
2022/05/13 07:49:31;;;;;;;2.20;2.00;;;21.20;68.20;;;;;;5031538;28;20203;-71
2022/05/13 07:51:57;;;;;;;2.28;2.08;;;21.20;68.20;;;;;;5031708;28;20205;-71
2022/05/13 07:54:23;;;;;;;2.22;2.03;;;21.20;68.20;;;;;;5031804;28;20183;-71
2022/05/13 07:56:48;;;;;;;2.28;2.17;;;21.20;68.10;;;;;;5031506;28;20187;-71
2022/05/13 07:59:14;;;;;;;2.30;2.10;;;21.20;68.00;;;;;;5049339;28;20206;-71
2022/05/13 08:01:40;;;;;;;2.55;2.30;;;21.20;68.10;;;;;;5052654;28;20233;-71
2022/05/13 08:04:06;;;;;;;2.15;1.95;;;21.20;68.10;;;;;;5051596;28;20208;-71
2022/05/13 08:06:32;;;;;;;2.25;2.10;;;21.20;68.20;;;;;;5051437;28;20182;-71
2022/05/13 08:08:58;;;;;;;1.92;1.83;;;21.20;68.10;;;;;;5034470;28;20221;-72
2022/05/13 08:11:29;;;;;;;3.80;2.00;;;21.20;68.10;;;;;;5051478;28;20194;-71
2022/05/13 08:13:56;;;;;;;2.25;2.00;;;21.20;68.10;;;;;;5051364;28;20190;-71
2022/05/13 08:16:26;;;;;;;2.08;1.98;;;21.20;68.20;;;;;;5051032;28;20224;-70
2022/05/13 08:18:53;;;;;;;3.53;2.28;;;21.20;68.20;;;;;;5041763;28;20229;-71
2022/05/13 08:21:21;;;;;;;2.60;1.88;;;21.20;68.20;;;;;;5051333;28;20717;-71
2022/05/13 08:23:47;;;;;;;2.20;2.00;;;21.20;68.20;;;;;;5052803;28;20181;-71
2022/05/13 08:26:13;;;;;;;2.58;2.08;;;21.20;68.10;;;;;;5051922;28;20221;-71
2022/05/13 08:28:41;;;;;;;3.08;2.25;;;21.20;68.10;;;;;;5038765;28;20227;-70
2022/05/13 08:31:08;;;;;;;2.10;2.00;;;21.20;68.00;;;;;;5031619;28;20197;-71
2022/05/13 08:33:35;;;;;;;3.00;2.17;;;21.20;68.00;;;;;;5031759;28;20249;-72
2022/05/13 08:36:04;;;;;;;1.88;1.77;;;21.20;68.00;;;;;;5031351;28;20287;-72
2022/05/13 08:38:37;;;;;;;1.85;1.75;;;21.20;68.00;;;;;;5060897;22;20253;-69
2022/05/13 08:41:43;;;;;;;1.80;1.70;;;21.20;67.90;;;;;;5017495;28;20218;-69
2022/05/13 08:44:13;;;;;;;2.10;1.90;;;21.20;67.90;;;;;;5034524;28;20170;-69
2022/05/13 08:46:46;;;;;;;2.58;1.90;;;21.20;67.90;;;;;;5017645;28;20171;-68
2022/05/13 08:49:36;;;;;;;3.15;2.20;;;21.20;67.90;;;;;;5014369;28;20175;-69
2022/05/13 08:55:31;;;;;;;2.40;2.20;;;21.20;67.90;;;;;;5018238;28;20238;-69
2022/05/13 08:58:01;;;;;;;1.90;1.70;;;21.20;67.90;;;;;;5018252;28;20310;-69
2022/05/13 09:00:50;;;;;;;2.13;1.90;;;21.20;67.90;;;;;;5002098;28;20301;-69
2022/05/13 09:03:39;;;;;;;2.38;1.90;;;21.20;68.00;;;;;;5018317;28;20171;-69
2022/05/13 09:06:06;;;;;;;2.20;1.95;;;21.20;68.00;;;;;;5001986;28;20176;-69
2022/05/13 09:08:34;;;;;;;2.40;2.20;;;21.20;67.90;;;;;;5018079;28;20211;-69
2022/05/13 09:11:32;;;;;;;2.22;2.05;;;21.20;67.90;;;;;;5018134;28;20183;-69
2022/05/13 09:14:31;;;;;;;1.85;1.70;;;21.20;67.90;;;;;;5018340;28;20187;-70
2022/05/13 09:17:20;;;;;;;1.73;1.63;;;21.20;67.90;;;;;;5001447;28;20191;-69
2022/05/13 09:20:15;;;;;;;2.30;2.10;;;21.20;68.00;;;;;;4998804;28;20173;-69
2022/05/13 09:22:51;;;;;;;3.03;2.17;;;21.20;67.90;;;;;;4982265;28;20219;-69
2022/05/13 09:25:33;;;;;;;2.97;1.85;;;21.20;67.90;;;;;;4998144;28;20202;-69
2022/05/13 09:28:10;;;;;;;2.28;2.10;;;21.20;67.90;;;;;;4988875;28;20207;-68
2022/05/13 09:30:46;;;;;;;1.98;1.88;;;21.20;68.00;;;;;;5017961;28;20179;-69
2022/05/13 09:33:30;;;;;;;2.13;1.92;;;21.20;68.00;;;;;;5001424;28;20178;-69
2022/05/13 09:36:19;;;;;;;2.25;2.03;;;21.20;68.50;;;;;;5017722;28;20175;-69
2022/05/13 09:39:21;;;;;;;2.78;1.98;;;21.20;68.00;;;;;;5002324;28;20247;-69
2022/05/13 09:41:49;;;;;;;2.08;1.83;;;21.20;68.20;;;;;;4998289;28;20230;-68
2022/05/13 09:44:25;;;;;;;2.22;1.95;;;21.20;67.90;;;;;;4997991;28;20195;-70
2022/05/13 09:47:10;;;;;;;2.35;1.90;;;21.20;67.90;;;;;;4981164;28;20187;-69
2022/05/13 09:49:42;;;;;;;2.25;2.05;;;21.20;67.80;;;;;;4981617;28;20246;-70
2022/05/13 09:52:25;;;;;;;2.10;1.90;;;21.20;67.80;;;;;;5015390;28;20226;-69
2022/05/13 09:54:52;;;;;;;2.90;2.15;;;21.30;68.00;;;;;;5014184;28;20183;-70
2022/05/13 09:57:33;;;;;;;2.20;2.00;;;21.30;68.00;;;;;;4981134;28;20262;-70
2022/05/13 10:00:10;;;;;;;1.92;1.83;;;21.30;67.90;;;;;;4997872;28;20195;-70
2022/05/13 10:03:09;;;;;;;1.95;1.70;;;21.30;67.80;;;;;;4997793;28;20283;-69
2022/05/13 10:05:35;;;;;;;2.97;1.88;;;21.30;67.60;;;;;;4980922;28;20188;-68
2022/05/13 10:08:08;;;;;;;2.55;1.83;;;21.30;67.50;;;;;;4981050;28;20218;-69
2022/05/13 10:14:00;;;;;;;2.75;1.83;;;21.40;67.80;;;;;;5014013;28;20191;-68
2022/05/13 10:16:38;;;;;;;2.08;1.83;;;21.40;68.00;;;;;;5028014;28;20180;-69
2022/05/13 10:19:28;;;;;;;3.05;1.88;;;21.40;67.60;;;;;;5000430;28;20234;-69
2022/05/13 10:22:19;;;;;;;2.70;1.95;;;21.40;67.80;;;;;;5000502;28;20215;-69
2022/05/13 10:25:06;;;;;;;2.22;1.88;;;21.40;67.60;;;;;;5034459;28;20168;-69
2022/05/13 10:27:40;;;;;;;3.38;1.88;;;21.40;67.80;;;;;;5033841;28;20210;-69
2022/05/13 10:30:11;;;;;;;2.83;2.22;;;21.40;67.70;;;;;;5016992;28;20187;-70
2022/05/13 10:33:02;;;;;;;2.97;2.10;;;21.40;68.50;;;;;;5016696;28;20187;-70
2022/05/13 10:35:36;;;;;;;2.72;2.10;;;21.40;67.80;;;;;;5000469;28;20180;-70
2022/05/13 10:38:29;;;;;;;2.25;1.90;;;21.40;68.00;;;;;;4999875;28;20214;-70
2022/05/13 10:41:09;;;;;;;2.10;1.90;;;21.40;68.20;;;;;;5000367;28;20211;-70
2022/05/13 10:43:52;;;;;;;2.67;1.80;;;21.40;68.00;;;;;;5016665;28;20171;-70
2022/05/13 10:46:49;;;;;;;2.20;1.95;;;21.40;67.90;;;;;;5016219;28;20195;-69
2022/05/13 10:49:15;;;;;;;1.88;1.77;;;21.40;67.80;;;;;;5011481;28;20172;-71
2022/05/13 10:52:04;;;;;;;3.90;2.10;;;21.40;68.20;;;;;;4980756;28;20180;-71
2022/05/13 10:54:48;;;;;;;4.18;1.92;;;21.40;68.20;;;;;;4980315;28;20192;-70
2022/05/13 10:57:37;;;;;;;2.38;2.10;;;21.40;68.10;;;;;;4996327;28;20207;-71
2022/05/13 11:00:15;;;;;;;2.10;1.90;;;21.40;68.20;;;;;;4996495;28;20180;-70
2022/05/13 11:03:14;;;;;;;4.15;2.00;;;21.40;68.10;;;;;;4996594;28;20200;-71
2022/05/13 11:06:01;;;;;;;3.75;2.28;;;21.40;68.10;;;;;;5031281;28;20654;-70
2022/05/13 11:08:54;;;;;;;3.10;1.98;;;21.40;68.00;;;;;;5005072;28;20216;-71
2022/05/13 11:11:41;;;;;;;2.95;1.92;;;21.40;68.10;;;;;;4996478;28;20180;-70
2022/05/13 11:14:32;;;;;;;2.88;1.92;;;21.40;68.00;;;;;;4980057;28;20184;-71
2022/05/13 11:17:24;;;;;;;2.47;1.77;;;21.40;68.00;;;;;;4995310;28;20227;-71
2022/05/13 11:20:19;;;;;;;3.05;1.90;;;21.40;67.70;;;;;;5012713;28;20176;-71
2022/05/13 11:23:05;;;;;;;3.35;2.22;;;21.40;68.20;;;;;;5012155;28;20275;-68
2022/05/13 11:25:58;;;;;;;4.10;1.90;;;21.40;67.90;;;;;;4979177;28;20180;-70
2022/05/13 11:29:14;;;;;;;3.22;2.33;;;21.40;68.20;;;;;;5007510;28;20214;-70
2022/05/13 11:32:57;;;;;;;2.20;2.00;;;21.40;68.00;;;;;;5012291;28;20226;-70
2022/05/13 11:36:05;;;;;;;3.47;2.30;;;21.40;67.80;;;;;;4952704;29;20195;-70
2022/05/13 11:38:52;;;;;;;3.17;1.95;;;21.40;67.90;;;;;;5024439;28;20221;-70
2022/05/13 11:41:23;;;;;;;4.07;2.25;;;21.50;67.90;;;;;;4998761;28;20211;-70
2022/05/13 11:44:03;;;;;;;2.75;2.10;;;21.50;68.00;;;;;;5006669;28;20180;-71
2022/05/13 11:46:52;;;;;;;2.90;2.13;;;21.40;67.70;;;;;;4995484;28;20211;-70
2022/05/13 11:49:28;;;;;;;2.28;2.03;;;21.50;68.00;;;;;;4995609;28;20202;-70
2022/05/13 11:51:56;;;;;;;2.17;1.98;;;21.50;68.00;;;;;;5014994;28;20253;-70
2022/05/13 11:54:26;;;;;;;2.90;2.20;;;21.50;68.10;;;;;;5032685;28;20278;-70
2022/05/13 11:57:23;;;;;;;2.38;1.95;;;21.50;67.90;;;;;;5032278;28;20245;-70
2022/05/13 12:00:20;;;;;;;4.57;2.38;;;21.50;68.00;;;;;;4997317;28;20636;-70
2022/05/13 12:03:24;;;;;;;2.17;1.98;;;21.50;68.00;;;;;;4995464;28;20730;-69
2022/05/13 12:06:10;;;;;;;2.33;2.00;;;21.50;68.10;;;;;;4936551;28;20262;-70
2022/05/13 12:09:09;;;;;;;2.33;2.05;;;21.50;68.00;;;;;;4979210;28;20235;-70
2022/05/13 12:11:59;;;;;;;2.85;2.10;;;21.50;68.00;;;;;;4999439;28;20194;-70
2022/05/13 12:14:40;;;;;;;2.97;1.70;;;21.50;68.20;;;;;;4985342;28;20733;-70
2022/05/13 12:17:32;;;;;;;3.95;2.00;;;21.50;68.30;;;;;;5014389;28;20210;-70
2022/05/13 12:20:29;;;;;;;4.55;2.15;;;21.50;68.20;;;;;;5012946;28;20180;-69
2022/05/13 12:23:02;;;;;;;3.25;2.25;;;21.50;68.30;;;;;;4995301;28;20188;-70
2022/05/13 12:25:34;;;;;;;2.58;2.10;;;21.50;68.40;;;;;;4995752;28;20611;-70
2022/05/13 12:28:24;;;;;;;3.60;2.22;;;21.50;68.40;;;;;;4994809;28;20780;-70
2022/05/13 12:30:52;;;;;;;4.22;2.00;;;21.50;68.50;;;;;;5012589;28;20177;-69
2022/05/13 12:33:20;;;;;;;2.92;1.80;;;21.50;68.40;;;;;;4978683;28;20600;-70
2022/05/13 12:39:17;;;;;;;2.65;2.13;;;21.50;68.40;;;;;;5009260;28;20253;-70
2022/05/13 12:41:43;;;;;;;2.70;1.92;;;21.50;68.30;;;;;;5032162;28;20230;-70
2022/05/13 12:44:30;;;;;;;2.22;2.03;;;21.50;68.30;;;;;;5023951;28;20187;-70
2022/05/13 12:47:15;;;;;;;3.75;2.00;;;21.50;68.40;;;;;;5036352;28;20187;-70
2022/05/13 12:50:14;;;;;;;3.50;2.08;;;21.50;68.40;;;;;;5005195;28;20196;-70
2022/05/13 12:52:42;;;;;;;3.42;2.10;;;21.50;68.40;;;;;;4978395;28;20191;-69
2022/05/13 12:55:21;;;;;;;4.20;2.63;;;21.50;68.50;;;;;;4995575;28;20191;-70
2022/05/13 12:58:02;;;;;;;3.47;2.20;;;21.50;68.40;;;;;;5023363;28;20210;-70
2022/05/13 13:00:42;;;;;;;2.22;2.03;;;21.50;68.60;;;;;;5003686;28;20194;-69
2022/05/13 13:03:12;;;;;;;2.20;1.77;;;21.50;68.40;;;;;;5011389;28;20269;-69
2022/05/13 13:05:42;;;;;;;2.55;1.90;;;21.50;68.40;;;;;;5030591;28;20269;-70
2022/05/13 13:08:22;;;;;;;2.17;1.80;;;21.50;68.50;;;;;;4995339;28;20215;-69
2022/05/13 13:11:22;;;;;;;2.50;2.10;;;21.50;68.30;;;;;;4994689;28;20274;-69
2022/05/13 13:14:15;;;;;;;3.75;2.10;;;21.50;68.40;;;;;;4994706;28;20188;-70
2022/05/13 13:16:59;;;;;;;2.45;2.10;;;21.50;68.30;;;;;;5028671;28;20199;-70
2022/05/13 13:19:28;;;;;;;3.00;2.00;;;21.50;68.00;;;;;;4994479;28;20666;-70
2022/05/13 13:22:14;;;;;;;2.40;2.10;;;21.50;68.20;;;;;;5025391;28;20216;-69
2022/05/13 13:24:43;;;;;;;3.10;2.05;;;21.50;68.30;;;;;;4995667;28;20180;-70
2022/05/13 13:27:18;;;;;;;3.63;2.25;;;21.60;68.20;;;;;;5010389;28;20208;-70
2022/05/13 13:29:47;;;;;;;2.25;2.10;;;21.50;68.10;;;;;;4997792;28;20180;-70
2022/05/13 13:32:21;;;;;;;2.72;1.95;;;21.60;68.10;;;;;;5005594;28;20187;-70
2022/05/13 13:34:55;;;;;;;3.17;2.00;;;21.60;68.30;;;;;;5013439;28;20228;-70
2022/05/13 13:37:37;;;;;;;5.18;2.28;;;21.60;68.30;;;;;;5030220;28;20214;-70
2022/05/13 13:40:22;;;;;;;2.17;1.98;;;21.50;68.20;;;;;;5017220;28;20235;-70
2022/05/13 13:42:48;;;;;;;2.88;2.40;;;21.60;68.40;;;;;;4999543;28;20212;-70
2022/05/13 13:45:25;;;;;;;3.15;2.30;;;21.60;68.40;;;;;;5010901;28;20195;-70
2022/05/13 13:47:55;;;;;;;2.80;2.38;;;21.50;68.30;;;;;;5001077;28;20199;-70
2022/05/13 13:50:29;;;;;;;2.75;2.45;;;21.60;68.30;;;;;;5001090;28;20187;-68
2022/05/13 13:52:55;;;;;;;2.53;2.33;;;21.50;68.40;;;;;;5017141;28;20183;-69